sensor_id;sensor_type;location;lat;lon;timestamp;temperature;humidity
45283;DHT22;31023;44.994;1.796;2023-04-03T00:00:29;7.90;99.90
45283;DHT22;31023;44.994;1.796;2023-04-03T00:02:55;8.00;99.90
45283;DHT22;31023;44.994;1.796;2023-04-03T00:05:21;8.00;99.90
45283;DHT22;31023;44.994;1.796;2023-04-03T00:07:47;8.00;99.90
45283;DHT22;31023;44.994;1.796;2023-04-03T00:10:12;8.10;99.90
45283;DHT22;31023;44.994;1.796;2023-04-03T00:12:39;8.10;99.90
45283;DHT22;31023;44.994;1.796;2023-04-03T00:15:05;8.10;99.90
45283;DHT22;31023;44.994;1.796;2023-04-03T00:17:31;8.10;99.90
45283;DHT22;31023;44.994;1.796;2023-04-03T00:19:56;8.10;99.90
45283;DHT22;31023;44.994;1.796;2023-04-03T00:22:22;8.10;99.90
45283;DHT22;31023;44.994;1.796;2023-04-03T00:24:48;8.10;99.90
45283;DHT22;31023;44.994;1.796;2023-04-03T00:27:13;8.10;99.90
45283;DHT22;31023;44.994;1.796;2023-04-03T00:29:41;8.00;99.90
45283;DHT22;31023;44.994;1.796;2023-04-03T00:32:06;8.00;99.90
45283;DHT22;31023;44.994;1.796;2023-04-03T00:34:32;8.00;99.90
45283;DHT22;31023;44.994;1.796;2023-04-03T00:36:57;8.00;99.90
45283;DHT22;31023;44.994;1.796;2023-04-03T00:39:23;8.00;99.90
45283;DHT22;31023;44.994;1.796;2023-04-03T00:41:49;8.10;99.90
45283;DHT22;31023;44.994;1.796;2023-04-03T00:47:11;8.10;99.90
45283;DHT22;31023;44.994;1.796;2023-04-03T00:49:37;8.00;99.90
45283;DHT22;31023;44.994;1.796;2023-04-03T00:52:05;7.90;99.90
45283;DHT22;31023;44.994;1.796;2023-04-03T00:54:35;8.00;99.90
45283;DHT22;31023;44.994;1.796;2023-04-03T00:57:01;8.00;99.90
45283;DHT22;31023;44.994;1.796;2023-04-03T00:59:32;8.00;99.90
45283;DHT22;31023;44.994;1.796;2023-04-03T01:01:59;8.00;99.90
45283;DHT22;31023;44.994;1.796;2023-04-03T01:07:02;8.00;99.90
45283;DHT22;31023;44.994;1.796;2023-04-03T01:09:30;7.90;99.90
45283;DHT22;31023;44.994;1.796;2023-04-03T01:25:45;8.00;99.90
45283;DHT22;31023;44.994;1.796;2023-04-03T01:28:17;7.90;99.90
45283;DHT22;31023;44.994;1.796;2023-04-03T01:30:45;7.80;99.90
45283;DHT22;31023;44.994;1.796;2023-04-03T01:33:13;7.80;99.90
45283;DHT22;31023;44.994;1.796;2023-04-03T01:35:39;7.90;99.90
45283;DHT22;31023;44.994;1.796;2023-04-03T01:38:04;7.80;99.90
45283;DHT22;31023;44.994;1.796;2023-04-03T01:40:30;7.70;99.90
45283;DHT22;31023;44.994;1.796;2023-04-03T01:42:56;7.70;99.90
45283;DHT22;31023;44.994;1.796;2023-04-03T01:45:21;7.60;99.90
45283;DHT22;31023;44.994;1.796;2023-04-03T01:47:47;7.60;99.90
45283;DHT22;31023;44.994;1.796;2023-04-03T01:50:13;7.60;99.90
45283;DHT22;31023;44.994;1.796;2023-04-03T01:52:38;7.50;99.90
45283;DHT22;31023;44.994;1.796;2023-04-03T01:55:05;7.50;99.90
45283;DHT22;31023;44.994;1.796;2023-04-03T01:57:31;7.50;99.90
45283;DHT22;31023;44.994;1.796;2023-04-03T01:59:56;7.40;99.90
45283;DHT22;31023;44.994;1.796;2023-04-03T02:02:22;7.50;99.90
45283;DHT22;31023;44.994;1.796;2023-04-03T02:04:48;7.50;99.90
45283;DHT22;31023;44.994;1.796;2023-04-03T02:07:13;7.60;99.90
45283;DHT22;31023;44.994;1.796;2023-04-03T02:09:39;7.70;99.90
45283;DHT22;31023;44.994;1.796;2023-04-03T02:12:05;7.80;99.90
45283;DHT22;31023;44.994;1.796;2023-04-03T02:14:31;7.80;99.90
45283;DHT22;31023;44.994;1.796;2023-04-03T02:16:57;7.80;99.90
45283;DHT22;31023;44.994;1.796;2023-04-03T02:19:22;7.80;99.90
45283;DHT22;31023;44.994;1.796;2023-04-03T02:21:48;7.80;99.90
45283;DHT22;31023;44.994;1.796;2023-04-03T02:24:14;7.70;99.90
45283;DHT22;31023;44.994;1.796;2023-04-03T02:26:40;7.70;99.90
45283;DHT22;31023;44.994;1.796;2023-04-03T02:29:06;7.80;99.90
45283;DHT22;31023;44.994;1.796;2023-04-03T02:31:31;7.70;99.90
45283;DHT22;31023;44.994;1.796;2023-04-03T02:33:57;7.80;99.90
45283;DHT22;31023;44.994;1.796;2023-04-03T02:36:23;7.70;99.90
45283;DHT22;31023;44.994;1.796;2023-04-03T02:38:48;7.70;99.90
45283;DHT22;31023;44.994;1.796;2023-04-03T02:41:14;7.60;99.90
45283;DHT22;31023;44.994;1.796;2023-04-03T02:43:40;7.60;99.90
45283;DHT22;31023;44.994;1.796;2023-04-03T02:46:06;7.60;99.90
45283;DHT22;31023;44.994;1.796;2023-04-03T02:48:32;7.60;99.90
45283;DHT22;31023;44.994;1.796;2023-04-03T02:50:58;7.60;99.90
45283;DHT22;31023;44.994;1.796;2023-04-03T02:53:24;7.60;99.90
45283;DHT22;31023;44.994;1.796;2023-04-03T02:55:50;7.60;99.90
45283;DHT22;31023;44.994;1.796;2023-04-03T02:58:15;7.70;99.90
45283;DHT22;31023;44.994;1.796;2023-04-03T03:00:41;7.70;99.90
45283;DHT22;31023;44.994;1.796;2023-04-03T03:03:07;7.70;99.90
45283;DHT22;31023;44.994;1.796;2023-04-03T03:05:33;7.70;99.90
45283;DHT22;31023;44.994;1.796;2023-04-03T03:07:58;7.60;99.90
45283;DHT22;31023;44.994;1.796;2023-04-03T03:10:24;7.40;99.90
45283;DHT22;31023;44.994;1.796;2023-04-03T03:12:50;7.30;99.90
45283;DHT22;31023;44.994;1.796;2023-04-03T03:15:16;7.30;99.90
45283;DHT22;31023;44.994;1.796;2023-04-03T03:17:43;7.20;99.90
45283;DHT22;31023;44.994;1.796;2023-04-03T03:20:09;7.10;99.90
45283;DHT22;31023;44.994;1.796;2023-04-03T03:22:35;7.20;99.90
45283;DHT22;31023;44.994;1.796;2023-04-03T03:25:02;7.10;99.90
45283;DHT22;31023;44.994;1.796;2023-04-03T03:27:28;7.00;99.90
45283;DHT22;31023;44.994;1.796;2023-04-03T03:29:53;6.90;99.90
45283;DHT22;31023;44.994;1.796;2023-04-03T03:32:19;6.70;99.90
45283;DHT22;31023;44.994;1.796;2023-04-03T03:34:45;6.60;99.90
45283;DHT22;31023;44.994;1.796;2023-04-03T03:37:11;6.60;99.90
45283;DHT22;31023;44.994;1.796;2023-04-03T03:39:37;6.60;99.90
45283;DHT22;31023;44.994;1.796;2023-04-03T03:42:03;6.60;99.90
45283;DHT22;31023;44.994;1.796;2023-04-03T03:44:28;6.60;99.90
45283;DHT22;31023;44.994;1.796;2023-04-03T03:46:54;6.60;99.90
45283;DHT22;31023;44.994;1.796;2023-04-03T03:49:20;6.60;99.90
45283;DHT22;31023;44.994;1.796;2023-04-03T03:51:46;6.70;99.90
45283;DHT22;31023;44.994;1.796;2023-04-03T03:54:12;6.80;99.90
45283;DHT22;31023;44.994;1.796;2023-04-03T03:56:38;6.80;99.90
45283;DHT22;31023;44.994;1.796;2023-04-03T03:59:04;6.90;99.90
45283;DHT22;31023;44.994;1.796;2023-04-03T04:01:29;6.90;99.90
45283;DHT22;31023;44.994;1.796;2023-04-03T04:03:56;6.90;99.90
45283;DHT22;31023;44.994;1.796;2023-04-03T04:06:21;6.90;99.90
45283;DHT22;31023;44.994;1.796;2023-04-03T04:08:47;7.00;99.90
45283;DHT22;31023;44.994;1.796;2023-04-03T04:11:13;6.90;99.90
45283;DHT22;31023;44.994;1.796;2023-04-03T04:13:39;7.10;99.90
45283;DHT22;31023;44.994;1.796;2023-04-03T04:16:05;7.10;99.90
45283;DHT22;31023;44.994;1.796;2023-04-03T04:18:31;7.10;99.90
45283;DHT22;31023;44.994;1.796;2023-04-03T04:20:56;7.00;99.90
45283;DHT22;31023;44.994;1.796;2023-04-03T04:23:22;7.00;99.90
45283;DHT22;31023;44.994;1.796;2023-04-03T04:25:48;7.20;99.90
45283;DHT22;31023;44.994;1.796;2023-04-03T04:28:15;7.20;99.90
45283;DHT22;31023;44.994;1.796;2023-04-03T04:30:41;7.20;99.90
45283;DHT22;31023;44.994;1.796;2023-04-03T04:33:07;7.20;99.90
45283;DHT22;31023;44.994;1.796;2023-04-03T04:35:33;7.30;99.90
45283;DHT22;31023;44.994;1.796;2023-04-03T04:37:59;7.30;99.90
45283;DHT22;31023;44.994;1.796;2023-04-03T04:40:25;7.30;99.90
45283;DHT22;31023;44.994;1.796;2023-04-03T04:42:51;7.30;99.90
45283;DHT22;31023;44.994;1.796;2023-04-03T04:45:17;7.30;99.90
45283;DHT22;31023;44.994;1.796;2023-04-03T04:47:43;7.30;99.90
45283;DHT22;31023;44.994;1.796;2023-04-03T04:50:09;7.30;99.90
45283;DHT22;31023;44.994;1.796;2023-04-03T04:52:35;7.40;99.90
45283;DHT22;31023;44.994;1.796;2023-04-03T04:55:01;7.40;99.90
45283;DHT22;31023;44.994;1.796;2023-04-03T04:57:27;7.30;99.90
45283;DHT22;31023;44.994;1.796;2023-04-03T04:59:53;7.40;99.90
45283;DHT22;31023;44.994;1.796;2023-04-03T05:02:18;7.40;99.90
45283;DHT22;31023;44.994;1.796;2023-04-03T05:04:44;7.30;99.90
45283;DHT22;31023;44.994;1.796;2023-04-03T05:07:10;7.30;99.90
45283;DHT22;31023;44.994;1.796;2023-04-03T05:09:35;7.40;99.90
45283;DHT22;31023;44.994;1.796;2023-04-03T05:12:01;7.30;99.90
45283;DHT22;31023;44.994;1.796;2023-04-03T05:14:28;7.40;99.90
45283;DHT22;31023;44.994;1.796;2023-04-03T05:16:54;7.40;99.90
45283;DHT22;31023;44.994;1.796;2023-04-03T05:19:22;7.40;99.90
45283;DHT22;31023;44.994;1.796;2023-04-03T05:21:48;7.30;99.90
45283;DHT22;31023;44.994;1.796;2023-04-03T05:24:14;7.30;99.90
45283;DHT22;31023;44.994;1.796;2023-04-03T05:26:41;7.40;99.90
45283;DHT22;31023;44.994;1.796;2023-04-03T05:29:07;7.40;99.90
45283;DHT22;31023;44.994;1.796;2023-04-03T05:31:32;7.40;99.90
45283;DHT22;31023;44.994;1.796;2023-04-03T05:33:58;7.40;99.90
45283;DHT22;31023;44.994;1.796;2023-04-03T05:36:24;7.40;99.90
45283;DHT22;31023;44.994;1.796;2023-04-03T05:38:51;7.40;99.90
45283;DHT22;31023;44.994;1.796;2023-04-03T05:41:17;7.40;99.90
45283;DHT22;31023;44.994;1.796;2023-04-03T05:43:42;7.50;99.90
45283;DHT22;31023;44.994;1.796;2023-04-03T05:46:19;7.40;99.90
45283;DHT22;31023;44.994;1.796;2023-04-03T05:48:45;7.40;99.90
45283;DHT22;31023;44.994;1.796;2023-04-03T05:51:20;7.40;99.90
45283;DHT22;31023;44.994;1.796;2023-04-03T05:53:47;7.50;99.90
45283;DHT22;31023;44.994;1.796;2023-04-03T05:56:13;7.40;99.90
45283;DHT22;31023;44.994;1.796;2023-04-03T05:58:39;7.40;99.90
45283;DHT22;31023;44.994;1.796;2023-04-03T06:01:05;7.40;99.90
45283;DHT22;31023;44.994;1.796;2023-04-03T06:03:31;7.60;99.90
45283;DHT22;31023;44.994;1.796;2023-04-03T06:05:57;7.60;99.90
45283;DHT22;31023;44.994;1.796;2023-04-03T06:08:22;7.60;99.90
45283;DHT22;31023;44.994;1.796;2023-04-03T06:10:49;7.70;99.90
45283;DHT22;31023;44.994;1.796;2023-04-03T06:13:17;7.50;99.90
45283;DHT22;31023;44.994;1.796;2023-04-03T06:15:42;7.60;99.90
45283;DHT22;31023;44.994;1.796;2023-04-03T06:18:08;7.60;99.90
45283;DHT22;31023;44.994;1.796;2023-04-03T06:20:34;7.70;99.90
45283;DHT22;31023;44.994;1.796;2023-04-03T06:22:59;7.60;99.90
45283;DHT22;31023;44.994;1.796;2023-04-03T06:25:25;7.80;99.90
45283;DHT22;31023;44.994;1.796;2023-04-03T06:27:52;7.80;99.90
45283;DHT22;31023;44.994;1.796;2023-04-03T06:30:17;7.80;99.90
45283;DHT22;31023;44.994;1.796;2023-04-03T06:32:43;7.90;99.90
45283;DHT22;31023;44.994;1.796;2023-04-03T06:35:09;8.10;99.90
45283;DHT22;31023;44.994;1.796;2023-04-03T06:37:35;8.20;99.90
45283;DHT22;31023;44.994;1.796;2023-04-03T06:40:00;8.10;99.90
45283;DHT22;31023;44.994;1.796;2023-04-03T06:42:27;8.10;99.90
45283;DHT22;31023;44.994;1.796;2023-04-03T06:44:52;8.00;99.90
45283;DHT22;31023;44.994;1.796;2023-04-03T06:47:18;8.10;99.90
45283;DHT22;31023;44.994;1.796;2023-04-03T06:49:44;8.30;99.90
45283;DHT22;31023;44.994;1.796;2023-04-03T06:52:10;8.40;99.90
45283;DHT22;31023;44.994;1.796;2023-04-03T06:54:37;8.30;99.90
45283;DHT22;31023;44.994;1.796;2023-04-03T06:57:03;8.60;99.90
45283;DHT22;31023;44.994;1.796;2023-04-03T06:59:29;8.60;99.90
45283;DHT22;31023;44.994;1.796;2023-04-03T07:01:55;8.80;99.90
45283;DHT22;31023;44.994;1.796;2023-04-03T07:04:21;9.00;99.90
45283;DHT22;31023;44.994;1.796;2023-04-03T07:06:47;9.10;99.90
45283;DHT22;31023;44.994;1.796;2023-04-03T07:09:14;9.40;99.90
45283;DHT22;31023;44.994;1.796;2023-04-03T07:11:40;9.30;99.90
45283;DHT22;31023;44.994;1.796;2023-04-03T07:14:06;9.70;99.90
45283;DHT22;31023;44.994;1.796;2023-04-03T07:16:34;11.20;99.90
45283;DHT22;31023;44.994;1.796;2023-04-03T07:19:00;10.50;99.90
45283;DHT22;31023;44.994;1.796;2023-04-03T07:21:27;10.00;99.90
45283;DHT22;31023;44.994;1.796;2023-04-03T07:23:53;9.60;99.90
45283;DHT22;31023;44.994;1.796;2023-04-03T07:26:19;9.40;99.90
45283;DHT22;31023;44.994;1.796;2023-04-03T07:28:48;9.40;99.90
45283;DHT22;31023;44.994;1.796;2023-04-03T07:31:15;9.20;99.90
45283;DHT22;31023;44.994;1.796;2023-04-03T07:33:41;9.20;99.90
45283;DHT22;31023;44.994;1.796;2023-04-03T07:36:07;9.20;99.90
45283;DHT22;31023;44.994;1.796;2023-04-03T07:38:34;9.10;99.90
45283;DHT22;31023;44.994;1.796;2023-04-03T07:41:01;9.10;99.90
45283;DHT22;31023;44.994;1.796;2023-04-03T07:43:27;9.10;99.90
45283;DHT22;31023;44.994;1.796;2023-04-03T07:45:53;9.10;99.90
45283;DHT22;31023;44.994;1.796;2023-04-03T07:48:24;9.00;99.90
45283;DHT22;31023;44.994;1.796;2023-04-03T07:50:51;9.10;99.90
45283;DHT22;31023;44.994;1.796;2023-04-03T07:53:18;9.10;99.90
45283;DHT22;31023;44.994;1.796;2023-04-03T07:55:47;9.10;99.90
45283;DHT22;31023;44.994;1.796;2023-04-03T07:58:16;9.10;99.90
45283;DHT22;31023;44.994;1.796;2023-04-03T08:00:42;9.10;99.90
45283;DHT22;31023;44.994;1.796;2023-04-03T08:03:10;9.10;99.90
45283;DHT22;31023;44.994;1.796;2023-04-03T08:05:44;9.10;99.90
45283;DHT22;31023;44.994;1.796;2023-04-03T08:08:12;9.00;99.90
45283;DHT22;31023;44.994;1.796;2023-04-03T08:10:39;9.10;99.90
45283;DHT22;31023;44.994;1.796;2023-04-03T08:13:04;8.90;99.90
45283;DHT22;31023;44.994;1.796;2023-04-03T08:15:31;9.00;99.90
45283;DHT22;31023;44.994;1.796;2023-04-03T08:17:57;9.10;99.90
45283;DHT22;31023;44.994;1.796;2023-04-03T08:20:23;9.10;99.90
45283;DHT22;31023;44.994;1.796;2023-04-03T08:22:49;9.20;99.90
45283;DHT22;31023;44.994;1.796;2023-04-03T08:25:14;9.40;99.90
45283;DHT22;31023;44.994;1.796;2023-04-03T08:27:40;9.40;99.90
45283;DHT22;31023;44.994;1.796;2023-04-03T08:30:07;9.90;99.90
45283;DHT22;31023;44.994;1.796;2023-04-03T08:32:34;9.70;99.90
45283;DHT22;31023;44.994;1.796;2023-04-03T08:35:01;9.60;99.90
45283;DHT22;31023;44.994;1.796;2023-04-03T08:37:27;9.50;99.90
45283;DHT22;31023;44.994;1.796;2023-04-03T08:39:52;9.80;99.90
45283;DHT22;31023;44.994;1.796;2023-04-03T08:45:31;10.90;99.90
45283;DHT22;31023;44.994;1.796;2023-04-03T08:48:10;11.60;98.10
45283;DHT22;31023;44.994;1.796;2023-04-03T08:50:43;12.20;95.90
45283;DHT22;31023;44.994;1.796;2023-04-03T08:53:16;15.40;89.10
45283;DHT22;31023;44.994;1.796;2023-04-03T08:55:45;15.70;82.40
45283;DHT22;31023;44.994;1.796;2023-04-03T08:58:29;14.90;83.50
45283;DHT22;31023;44.994;1.796;2023-04-03T09:00:59;17.90;76.30
45283;DHT22;31023;44.994;1.796;2023-04-03T09:03:32;16.50;77.60
45283;DHT22;31023;44.994;1.796;2023-04-03T09:06:10;16.60;79.00
45283;DHT22;31023;44.994;1.796;2023-04-03T09:16:58;15.10;73.50
45283;DHT22;31023;44.994;1.796;2023-04-03T09:22:26;14.60;78.50
45283;DHT22;31023;44.994;1.796;2023-04-03T09:25:02;13.70;82.60
45283;DHT22;31023;44.994;1.796;2023-04-03T09:27:31;13.80;84.10
45283;DHT22;31023;44.994;1.796;2023-04-03T09:29:57;15.50;84.20
45283;DHT22;31023;44.994;1.796;2023-04-03T09:32:35;14.10;80.60
45283;DHT22;31023;44.994;1.796;2023-04-03T09:37:50;13.10;84.40
45283;DHT22;31023;44.994;1.796;2023-04-03T09:42:56;15.40;78.10
45283;DHT22;31023;44.994;1.796;2023-04-03T09:45:30;15.30;77.90
45283;DHT22;31023;44.994;1.796;2023-04-03T09:48:17;15.80;77.30
45283;DHT22;31023;44.994;1.796;2023-04-03T09:50:53;15.40;75.70
45283;DHT22;31023;44.994;1.796;2023-04-03T09:53:40;16.00;74.70
45283;DHT22;31023;44.994;1.796;2023-04-03T09:59:35;17.70;68.80
45283;DHT22;31023;44.994;1.796;2023-04-03T10:01:38;20.40;69.60
45283;DHT22;31023;44.994;1.796;2023-04-03T10:04:14;20.40;61.60
45283;DHT22;31023;44.994;1.796;2023-04-03T10:07:01;15.80;70.60
45283;DHT22;31023;44.994;1.796;2023-04-03T10:09:31;16.60;70.50
45283;DHT22;31023;44.994;1.796;2023-04-03T10:12:11;17.00;64.30
45283;DHT22;31023;44.994;1.796;2023-04-03T10:14:53;17.30;68.70
45283;DHT22;31023;44.994;1.796;2023-04-03T10:19:57;16.20;70.20
45283;DHT22;31023;44.994;1.796;2023-04-03T10:25:43;15.30;73.00
45283;DHT22;31023;44.994;1.796;2023-04-03T10:28:40;15.20;74.20
45283;DHT22;31023;44.994;1.796;2023-04-03T10:31:53;14.60;74.50
45283;DHT22;31023;44.994;1.796;2023-04-03T10:34:28;16.20;76.20
45283;DHT22;31023;44.994;1.796;2023-04-03T10:37:05;15.70;75.50
45283;DHT22;31023;44.994;1.796;2023-04-03T10:45:31;16.30;77.10
45283;DHT22;31023;44.994;1.796;2023-04-03T10:51:00;15.80;72.70
45283;DHT22;31023;44.994;1.796;2023-04-03T10:58:38;15.40;74.80
45283;DHT22;31023;44.994;1.796;2023-04-03T11:01:10;15.00;72.00
45283;DHT22;31023;44.994;1.796;2023-04-03T11:03:47;14.50;75.30
45283;DHT22;31023;44.994;1.796;2023-04-03T11:06:16;14.30;73.90
45283;DHT22;31023;44.994;1.796;2023-04-03T11:09:01;14.40;73.80
45283;DHT22;31023;44.994;1.796;2023-04-03T11:11:37;14.00;74.50
45283;DHT22;31023;44.994;1.796;2023-04-03T11:14:30;13.80;74.80
45283;DHT22;31023;44.994;1.796;2023-04-03T11:17:07;14.00;79.30
45283;DHT22;31023;44.994;1.796;2023-04-03T11:24:59;15.10;76.50
45283;DHT22;31023;44.994;1.796;2023-04-03T11:27:33;14.60;77.50
45283;DHT22;31023;44.994;1.796;2023-04-03T11:30:01;14.40;76.80
45283;DHT22;31023;44.994;1.796;2023-04-03T11:35:12;15.40;74.80
45283;DHT22;31023;44.994;1.796;2023-04-03T11:37:41;14.70;73.20
45283;DHT22;31023;44.994;1.796;2023-04-03T11:40:28;14.70;73.30
45283;DHT22;31023;44.994;1.796;2023-04-03T11:47:54;15.50;74.60
45283;DHT22;31023;44.994;1.796;2023-04-03T11:50:41;15.20;75.00
45283;DHT22;31023;44.994;1.796;2023-04-03T11:55:51;15.00;74.50
45283;DHT22;31023;44.994;1.796;2023-04-03T12:18:55;15.50;71.70
45283;DHT22;31023;44.994;1.796;2023-04-03T12:32:34;15.10;73.10
45283;DHT22;31023;44.994;1.796;2023-04-03T12:35:14;15.30;71.50
45283;DHT22;31023;44.994;1.796;2023-04-03T12:40:43;15.10;69.90
45283;DHT22;31023;44.994;1.796;2023-04-03T12:46:19;15.80;71.80
45283;DHT22;31023;44.994;1.796;2023-04-03T12:53:46;15.30;68.20
45283;DHT22;31023;44.994;1.796;2023-04-03T12:56:45;15.20;68.20
45283;DHT22;31023;44.994;1.796;2023-04-03T12:59:21;15.60;68.90
45283;DHT22;31023;44.994;1.796;2023-04-03T13:01:57;15.90;69.30
45283;DHT22;31023;44.994;1.796;2023-04-03T13:04:24;16.10;68.80
45283;DHT22;31023;44.994;1.796;2023-04-03T13:06:51;16.00;68.80
45283;DHT22;31023;44.994;1.796;2023-04-03T13:09:23;16.30;68.60
45283;DHT22;31023;44.994;1.796;2023-04-03T13:11:56;16.20;69.30
45283;DHT22;31023;44.994;1.796;2023-04-03T13:14:25;16.50;68.90
45283;DHT22;31023;44.994;1.796;2023-04-03T13:17:11;16.60;66.80
45283;DHT22;31023;44.994;1.796;2023-04-03T13:19:37;16.00;67.00
45283;DHT22;31023;44.994;1.796;2023-04-03T13:22:07;15.70;64.90
45283;DHT22;31023;44.994;1.796;2023-04-03T13:24:36;15.50;68.40
45283;DHT22;31023;44.994;1.796;2023-04-03T13:27:06;14.90;66.70
45283;DHT22;31023;44.994;1.796;2023-04-03T13:29:35;15.10;66.50
45283;DHT22;31023;44.994;1.796;2023-04-03T13:32:03;15.60;66.70
45283;DHT22;31023;44.994;1.796;2023-04-03T13:34:42;15.50;67.90
45283;DHT22;31023;44.994;1.796;2023-04-03T13:37:30;15.40;71.90
45283;DHT22;31023;44.994;1.796;2023-04-03T13:40:08;15.00;66.80
45283;DHT22;31023;44.994;1.796;2023-04-03T13:42:38;15.30;68.00
45283;DHT22;31023;44.994;1.796;2023-04-03T13:45:29;15.40;68.10
45283;DHT22;31023;44.994;1.796;2023-04-03T13:48:10;15.80;68.70
45283;DHT22;31023;44.994;1.796;2023-04-03T13:53:19;15.40;67.60
45283;DHT22;31023;44.994;1.796;2023-04-03T13:55:56;15.30;67.90
45283;DHT22;31023;44.994;1.796;2023-04-03T13:58:25;15.30;70.10
45283;DHT22;31023;44.994;1.796;2023-04-03T14:03:28;15.70;67.20
45283;DHT22;31023;44.994;1.796;2023-04-03T14:05:54;15.40;69.50
45283;DHT22;31023;44.994;1.796;2023-04-03T14:08:20;15.60;67.60
45283;DHT22;31023;44.994;1.796;2023-04-03T14:10:46;15.80;66.80
45283;DHT22;31023;44.994;1.796;2023-04-03T14:13:19;15.60;66.40
45283;DHT22;31023;44.994;1.796;2023-04-03T14:15:47;15.30;67.40
45283;DHT22;31023;44.994;1.796;2023-04-03T14:18:16;15.30;68.50
45283;DHT22;31023;44.994;1.796;2023-04-03T14:20:42;15.30;67.10
45283;DHT22;31023;44.994;1.796;2023-04-03T14:23:08;15.30;67.60
45283;DHT22;31023;44.994;1.796;2023-04-03T14:25:35;15.20;65.60
45283;DHT22;31023;44.994;1.796;2023-04-03T14:28:00;15.40;66.60
45283;DHT22;31023;44.994;1.796;2023-04-03T14:30:31;15.20;66.80
45283;DHT22;31023;44.994;1.796;2023-04-03T14:32:58;15.20;67.50
45283;DHT22;31023;44.994;1.796;2023-04-03T14:35:26;14.50;67.30
45283;DHT22;31023;44.994;1.796;2023-04-03T14:37:52;14.40;68.10
45283;DHT22;31023;44.994;1.796;2023-04-03T14:40:20;14.70;69.10
45283;DHT22;31023;44.994;1.796;2023-04-03T14:42:46;15.00;68.20
45283;DHT22;31023;44.994;1.796;2023-04-03T14:45:14;15.10;70.10
45283;DHT22;31023;44.994;1.796;2023-04-03T14:47:49;14.70;68.50
45283;DHT22;31023;44.994;1.796;2023-04-03T14:50:18;14.50;69.00
45283;DHT22;31023;44.994;1.796;2023-04-03T14:52:47;14.20;69.10
45283;DHT22;31023;44.994;1.796;2023-04-03T14:55:15;13.80;71.10
45283;DHT22;31023;44.994;1.796;2023-04-03T14:57:41;13.50;69.40
45283;DHT22;31023;44.994;1.796;2023-04-03T15:00:12;13.40;70.50
45283;DHT22;31023;44.994;1.796;2023-04-03T15:02:38;13.40;68.60
45283;DHT22;31023;44.994;1.796;2023-04-03T15:05:06;13.50;69.70
45283;DHT22;31023;44.994;1.796;2023-04-03T15:07:36;13.90;68.00
45283;DHT22;31023;44.994;1.796;2023-04-03T15:10:16;14.40;69.70
45283;DHT22;31023;44.994;1.796;2023-04-03T15:12:44;13.90;68.30
45283;DHT22;31023;44.994;1.796;2023-04-03T15:15:10;13.30;70.10
45283;DHT22;31023;44.994;1.796;2023-04-03T15:17:37;12.90;70.80
45283;DHT22;31023;44.994;1.796;2023-04-03T15:20:03;12.80;70.60
45283;DHT22;31023;44.994;1.796;2023-04-03T15:22:29;12.90;71.70
45283;DHT22;31023;44.994;1.796;2023-04-03T15:24:54;13.20;71.30
45283;DHT22;31023;44.994;1.796;2023-04-03T15:27:20;13.40;68.20
45283;DHT22;31023;44.994;1.796;2023-04-03T15:29:46;13.40;66.90
45283;DHT22;31023;44.994;1.796;2023-04-03T15:32:12;13.50;69.30
45283;DHT22;31023;44.994;1.796;2023-04-03T15:34:38;13.40;71.30
45283;DHT22;31023;44.994;1.796;2023-04-03T15:37:04;13.20;71.20
45283;DHT22;31023;44.994;1.796;2023-04-03T15:39:30;13.10;70.60
45283;DHT22;31023;44.994;1.796;2023-04-03T15:41:56;13.10;71.20
45283;DHT22;31023;44.994;1.796;2023-04-03T15:44:25;13.00;72.40
45283;DHT22;31023;44.994;1.796;2023-04-03T15:46:51;13.00;72.70
45283;DHT22;31023;44.994;1.796;2023-04-03T15:49:18;13.00;74.10
45283;DHT22;31023;44.994;1.796;2023-04-03T15:51:44;13.00;73.50
45283;DHT22;31023;44.994;1.796;2023-04-03T15:54:10;12.70;71.70
45283;DHT22;31023;44.994;1.796;2023-04-03T15:56:36;12.60;72.80
45283;DHT22;31023;44.994;1.796;2023-04-03T15:59:01;12.60;73.80
45283;DHT22;31023;44.994;1.796;2023-04-03T16:01:27;12.30;71.80
45283;DHT22;31023;44.994;1.796;2023-04-03T16:03:53;12.30;74.70
45283;DHT22;31023;44.994;1.796;2023-04-03T16:06:19;12.20;71.70
45283;DHT22;31023;44.994;1.796;2023-04-03T16:08:46;12.10;72.60
45283;DHT22;31023;44.994;1.796;2023-04-03T16:11:13;12.10;73.00
45283;DHT22;31023;44.994;1.796;2023-04-03T16:13:39;12.10;73.50
45283;DHT22;31023;44.994;1.796;2023-04-03T16:16:05;12.10;73.30
45283;DHT22;31023;44.994;1.796;2023-04-03T16:18:31;12.10;73.20
45283;DHT22;31023;44.994;1.796;2023-04-03T16:20:57;12.10;72.40
45283;DHT22;31023;44.994;1.796;2023-04-03T16:23:23;12.30;75.40
45283;DHT22;31023;44.994;1.796;2023-04-03T16:25:49;12.30;73.80
45283;DHT22;31023;44.994;1.796;2023-04-03T16:28:16;12.40;74.10
45283;DHT22;31023;44.994;1.796;2023-04-03T16:30:44;12.20;74.70
45283;DHT22;31023;44.994;1.796;2023-04-03T16:33:10;11.90;72.20
45283;DHT22;31023;44.994;1.796;2023-04-03T16:35:36;11.90;72.60
45283;DHT22;31023;44.994;1.796;2023-04-03T16:38:02;11.80;73.90
45283;DHT22;31023;44.994;1.796;2023-04-03T16:40:28;11.80;75.00
45283;DHT22;31023;44.994;1.796;2023-04-03T16:42:54;11.70;75.60
45283;DHT22;31023;44.994;1.796;2023-04-03T16:45:19;11.80;75.30
45283;DHT22;31023;44.994;1.796;2023-04-03T16:47:45;11.70;74.90
45283;DHT22;31023;44.994;1.796;2023-04-03T16:50:11;11.70;76.10
45283;DHT22;31023;44.994;1.796;2023-04-03T16:52:37;11.70;76.40
45283;DHT22;31023;44.994;1.796;2023-04-03T16:55:02;11.70;76.30
45283;DHT22;31023;44.994;1.796;2023-04-03T16:57:28;11.60;74.90
45283;DHT22;31023;44.994;1.796;2023-04-03T16:59:54;11.60;74.40
45283;DHT22;31023;44.994;1.796;2023-04-03T17:02:21;11.70;76.00
45283;DHT22;31023;44.994;1.796;2023-04-03T17:04:50;11.70;75.40
45283;DHT22;31023;44.994;1.796;2023-04-03T17:07:18;11.80;75.10
45283;DHT22;31023;44.994;1.796;2023-04-03T17:09:44;11.80;75.90
45283;DHT22;31023;44.994;1.796;2023-04-03T17:12:09;11.70;76.80
45283;DHT22;31023;44.994;1.796;2023-04-03T17:14:35;11.40;76.60
45283;DHT22;31023;44.994;1.796;2023-04-03T17:17:03;11.30;79.20
45283;DHT22;31023;44.994;1.796;2023-04-03T17:19:29;11.00;77.90
45283;DHT22;31023;44.994;1.796;2023-04-03T17:21:56;10.80;79.00
45283;DHT22;31023;44.994;1.796;2023-04-03T17:24:22;10.70;77.70
45283;DHT22;31023;44.994;1.796;2023-04-03T17:26:47;10.70;77.10
45283;DHT22;31023;44.994;1.796;2023-04-03T17:29:13;10.60;78.30
45283;DHT22;31023;44.994;1.796;2023-04-03T17:31:39;10.60;78.90
45283;DHT22;31023;44.994;1.796;2023-04-03T17:34:04;10.50;79.60
45283;DHT22;31023;44.994;1.796;2023-04-03T17:36:32;10.40;80.40
45283;DHT22;31023;44.994;1.796;2023-04-03T17:38:57;10.30;81.00
45283;DHT22;31023;44.994;1.796;2023-04-03T17:41:23;10.20;80.80
45283;DHT22;31023;44.994;1.796;2023-04-03T17:43:49;10.10;81.10
45283;DHT22;31023;44.994;1.796;2023-04-03T17:46:15;10.00;80.90
45283;DHT22;31023;44.994;1.796;2023-04-03T17:48:43;9.90;81.60
45283;DHT22;31023;44.994;1.796;2023-04-03T17:51:14;9.80;82.10